Time;durP1;ratioP1;P1;durP2;ratioP2;P2;SDS_P1;SDS_P2;PMS_P1;PMS_P2;Temp;Humidity;BMP_temperature;BMP_pressure;BME280_temperature;BME280_humidity;BME280_pressure;Samples;Min_cycle;Max_cycle;Signal;HPM_P1;HPM_P2
2021/10/28 00:14:11;;;;;;;14.70;7.23;;;13.70;99.90;;;;;;5043298;28;20499;-67
2021/10/28 00:16:44;;;;;;;23.90;7.73;;;13.70;99.90;;;;;;5048089;28;20551;-70
2021/10/28 00:19:15;;;;;;;15.70;7.47;;;13.60;99.90;;;;;;5041175;28;20464;-68
2021/10/28 00:21:48;;;;;;;17.70;8.47;;;13.60;99.90;;;;;;5046979;28;20574;-67
2021/10/28 00:24:21;;;;;;;20.03;8.73;;;13.60;99.90;;;;;;5046840;28;20448;-67
2021/10/28 00:26:51;;;;;;;22.93;8.03;;;13.70;99.90;;;;;;5048278;28;20536;-67
2021/10/28 00:29:26;;;;;;;21.27;9.17;;;13.60;99.90;;;;;;5038381;28;20523;-70
2021/10/28 00:31:57;;;;;;;16.47;6.97;;;13.60;99.90;;;;;;5048963;28;20459;-69
2021/10/28 00:34:28;;;;;;;13.00;6.43;;;13.60;99.90;;;;;;5041400;28;20490;-68
2021/10/28 00:36:58;;;;;;;22.47;8.50;;;13.50;99.90;;;;;;5045200;28;20503;-69
2021/10/28 00:39:31;;;;;;;20.97;7.73;;;13.50;99.90;;;;;;5049108;28;20949;-69
2021/10/28 00:42:02;;;;;;;16.37;7.77;;;13.50;99.90;;;;;;5047665;28;20460;-68
2021/10/28 00:44:32;;;;;;;18.47;8.00;;;13.40;99.90;;;;;;5049192;28;20848;-68
2021/10/28 00:47:04;;;;;;;18.33;8.33;;;13.30;99.90;;;;;;5047210;28;20950;-69
2021/10/28 00:49:35;;;;;;;15.67;7.10;;;13.40;99.90;;;;;;5046116;28;20487;-71
2021/10/28 00:52:06;;;;;;;16.13;7.10;;;13.40;99.90;;;;;;5047135;28;20479;-72
2021/10/28 00:54:39;;;;;;;19.00;7.57;;;13.40;99.90;;;;;;5048739;28;20559;-69
2021/10/28 00:57:13;;;;;;;16.63;6.60;;;13.40;99.90;;;;;;5046663;28;20851;-70
2021/10/28 00:59:46;;;;;;;15.57;7.67;;;13.40;99.90;;;;;;5046818;28;20835;-70
2021/10/28 01:02:18;;;;;;;17.53;8.10;;;13.40;99.90;;;;;;5049338;28;20831;-70
2021/10/28 01:05:17;;;;;;;21.40;7.90;;;13.40;99.90;;;;;;5047134;28;20495;-77
2021/10/28 01:07:48;;;;;;;21.00;7.87;;;13.30;99.90;;;;;;5048836;28;20505;-69
2021/10/28 01:10:21;;;;;;;22.60;7.83;;;13.40;99.90;;;;;;5046844;28;20513;-70
2021/10/28 01:12:52;;;;;;;19.90;9.03;;;13.30;99.90;;;;;;5045246;28;20468;-70
2021/10/28 01:15:23;;;;;;;17.73;6.93;;;13.20;99.90;;;;;;5048142;28;20448;-71
2021/10/28 01:17:54;;;;;;;15.63;7.37;;;13.20;99.90;;;;;;5045156;28;20468;-69
2021/10/28 01:23:23;;;;;;;16.40;7.80;;;13.20;99.90;;;;;;5050651;28;21012;-70
2021/10/28 01:25:58;;;;;;;18.33;8.03;;;13.20;99.90;;;;;;5047645;28;20513;-70
2021/10/28 01:28:31;;;;;;;16.33;7.73;;;13.10;99.90;;;;;;5046717;28;20969;-69
2021/10/28 01:31:04;;;;;;;14.77;8.30;;;13.20;99.90;;;;;;5047481;28;20452;-71
2021/10/28 01:33:36;;;;;;;19.93;7.47;;;13.20;99.90;;;;;;5037750;28;20802;-71
2021/10/28 01:36:12;;;;;;;21.37;8.40;;;13.20;99.90;;;;;;5045713;28;20490;-72
2021/10/28 01:38:43;;;;;;;19.13;8.10;;;13.20;99.90;;;;;;5045737;28;20522;-71
2021/10/28 01:41:15;;;;;;;15.83;7.90;;;13.30;99.90;;;;;;5047040;28;20520;-70
2021/10/28 01:43:46;;;;;;;22.47;7.73;;;13.20;99.90;;;;;;5045736;28;20473;-70
2021/10/28 01:46:17;;;;;;;14.27;7.40;;;13.20;99.90;;;;;;5048566;28;20547;-70
2021/10/28 01:48:48;;;;;;;17.77;7.00;;;13.10;99.90;;;;;;5037359;28;20547;-70
2021/10/28 01:51:24;;;;;;;17.97;7.10;;;13.00;99.90;;;;;;5046826;28;20471;-71
2021/10/28 01:53:55;;;;;;;14.10;7.47;;;13.00;99.90;;;;;;5045218;28;20570;-72
2021/10/28 01:56:26;;;;;;;20.97;7.93;;;13.00;99.90;;;;;;5041479;28;20993;-71
2021/10/28 01:58:56;;;;;;;17.53;8.07;;;13.00;99.90;;;;;;5039278;28;20464;-68
2021/10/28 02:01:27;;;;;;;15.10;8.40;;;13.00;99.90;;;;;;5048380;28;20463;-68
2021/10/28 02:03:58;;;;;;;18.80;8.07;;;13.00;99.90;;;;;;5043001;28;20819;-67
2021/10/28 02:06:31;;;;;;;16.43;7.53;;;13.00;99.90;;;;;;5046264;28;20469;-68
2021/10/28 02:09:02;;;;;;;14.43;7.87;;;13.10;99.90;;;;;;5049705;28;20876;-70
2021/10/28 02:11:34;;;;;;;20.60;8.93;;;13.10;99.90;;;;;;5050102;28;20610;-69
2021/10/28 02:14:05;;;;;;;17.90;7.93;;;13.00;99.90;;;;;;5047019;28;20499;-69
2021/10/28 02:16:37;;;;;;;16.93;7.83;;;13.10;99.90;;;;;;5045147;28;20491;-66
2021/10/28 02:19:07;;;;;;;18.73;8.80;;;13.20;99.90;;;;;;5045541;28;20472;-68
2021/10/28 02:21:40;;;;;;;21.50;8.70;;;13.10;99.90;;;;;;5049412;28;20467;-67
2021/10/28 02:24:11;;;;;;;18.20;8.30;;;13.20;99.90;;;;;;5049930;28;20461;-73
2021/10/28 02:26:41;;;;;;;15.67;8.30;;;13.20;99.90;;;;;;5042041;28;20464;-69
2021/10/28 02:29:15;;;;;;;20.37;8.13;;;13.20;99.90;;;;;;5048061;28;23614;-70
2021/10/28 02:31:46;;;;;;;16.07;9.10;;;13.20;99.90;;;;;;5051758;28;20468;-69
2021/10/28 02:34:17;;;;;;;19.90;9.23;;;13.20;99.90;;;;;;5049422;28;20571;-70
2021/10/28 02:36:50;;;;;;;17.20;8.80;;;13.20;99.90;;;;;;5049795;28;20965;-70
2021/10/28 02:39:23;;;;;;;13.93;8.57;;;13.10;99.90;;;;;;5044937;28;20456;-69
2021/10/28 02:41:54;;;;;;;20.63;8.67;;;13.00;99.90;;;;;;5047810;28;21088;-69
2021/10/28 02:44:25;;;;;;;17.73;8.90;;;13.00;99.90;;;;;;5043851;28;20556;-70
2021/10/28 02:46:55;;;;;;;20.43;10.50;;;13.00;99.90;;;;;;5044878;28;20809;-69
2021/10/28 02:49:27;;;;;;;16.33;9.07;;;13.10;99.90;;;;;;5039318;28;20457;-69
2021/10/28 02:51:59;;;;;;;15.33;10.13;;;13.10;99.90;;;;;;5045582;28;20471;-68
2021/10/28 02:54:30;;;;;;;18.07;11.07;;;13.00;99.90;;;;;;5037599;28;20578;-69
2021/10/28 02:57:01;;;;;;;19.93;11.23;;;13.00;99.90;;;;;;5043074;28;20570;-68
2021/10/28 02:59:32;;;;;;;16.00;10.40;;;13.00;99.90;;;;;;5043395;28;20476;-67
2021/10/28 03:02:04;;;;;;;17.00;10.90;;;13.00;99.90;;;;;;5044520;28;20471;-68
2021/10/28 03:04:35;;;;;;;21.10;12.83;;;13.00;99.90;;;;;;5043965;28;20799;-67
2021/10/28 03:07:07;;;;;;;21.57;12.60;;;13.00;99.90;;;;;;5040734;28;20483;-68
2021/10/28 03:09:38;;;;;;;25.93;12.20;;;13.00;99.90;;;;;;5046643;28;20472;-68
2021/10/28 03:12:10;;;;;;;18.73;11.20;;;13.10;99.90;;;;;;5039049;28;20456;-68
2021/10/28 03:14:44;;;;;;;16.00;10.83;;;13.10;99.90;;;;;;5049280;28;20498;-69
2021/10/28 03:17:26;;;;;;;19.93;12.27;;;13.20;99.90;;;;;;5051232;28;20571;-67
2021/10/28 03:25:40;;;;;;;22.33;13.03;;;13.10;99.90;;;;;;5049019;28;20942;-70
2021/10/28 03:28:15;;;;;;;18.30;9.83;;;13.10;99.90;;;;;;5050458;28;20463;-69
2021/10/28 03:30:47;;;;;;;16.17;10.57;;;13.00;99.90;;;;;;5041243;28;20475;-68
2021/10/28 03:33:20;;;;;;;18.93;9.67;;;13.10;99.90;;;;;;5048362;28;20452;-69
2021/10/28 03:35:52;;;;;;;17.60;10.50;;;13.10;99.90;;;;;;5046310;28;20473;-68
2021/10/28 03:38:27;;;;;;;25.13;10.40;;;13.00;99.90;;;;;;5048286;28;20488;-68
2021/10/28 03:44:28;;;;;;;15.97;8.90;;;13.00;99.90;;;;;;5045514;28;20498;-68
2021/10/28 03:58:51;;;;;;;12.27;6.70;;;12.90;99.90;;;;;;5047635;28;20487;-67
2021/10/28 04:18:46;;;;;;;17.27;9.17;;;12.70;99.90;;;;;;5026233;28;20574;-75
2021/10/28 04:29:37;;;;;;;13.23;8.80;;;12.70;99.90;;;;;;5047848;28;20835;-70
2021/10/28 04:32:09;;;;;;;15.77;9.17;;;12.70;99.90;;;;;;5046109;28;20463;-72
2021/10/28 04:34:40;;;;;;;11.40;8.73;;;12.80;99.90;;;;;;5046854;28;20467;-70
2021/10/28 04:37:11;;;;;;;15.53;9.30;;;12.80;99.90;;;;;;5044665;28;20484;-68
2021/10/28 04:39:42;;;;;;;18.53;10.17;;;12.80;99.90;;;;;;5043863;28;20475;-69
2021/10/28 04:42:13;;;;;;;19.03;9.60;;;12.70;99.90;;;;;;5047313;28;20594;-69
2021/10/28 04:44:45;;;;;;;17.63;8.83;;;12.70;99.90;;;;;;5048318;28;20459;-67
2021/10/28 04:47:19;;;;;;;13.60;8.97;;;12.80;99.90;;;;;;5050099;28;20814;-75
2021/10/28 04:49:53;;;;;;;14.23;8.37;;;12.70;99.90;;;;;;5040970;28;20463;-73
2021/10/28 04:52:23;;;;;;;15.00;9.00;;;12.60;99.90;;;;;;5048328;28;20951;-73
2021/10/28 04:54:55;;;;;;;12.77;7.83;;;12.70;99.90;;;;;;5042835;28;20799;-73
2021/10/28 04:57:26;;;;;;;15.23;7.70;;;12.70;99.90;;;;;;5049177;28;20821;-73
2021/10/28 04:59:58;;;;;;;16.23;8.97;;;12.70;99.90;;;;;;5044466;28;20805;-73
2021/10/28 05:02:48;;;;;;;14.90;9.10;;;12.70;99.90;;;;;;5041709;28;20492;-76
2021/10/28 05:05:46;;;;;;;12.17;7.43;;;12.60;99.90;;;;;;5047875;28;20922;-75
2021/10/28 05:08:18;;;;;;;10.20;8.30;;;12.60;99.90;;;;;;5045640;28;20472;-75
2021/10/28 05:10:51;;;;;;;10.97;7.90;;;12.60;99.90;;;;;;5047804;28;20460;-75
2021/10/28 05:13:25;;;;;;;11.70;7.93;;;12.60;99.90;;;;;;5048571;28;20965;-74
2021/10/28 05:16:04;;;;;;;15.63;8.30;;;12.60;99.90;;;;;;5048992;28;20564;-75
2021/10/28 05:18:39;;;;;;;14.93;8.33;;;12.50;99.90;;;;;;5040254;28;20479;-74
2021/10/28 05:21:11;;;;;;;11.23;7.20;;;12.50;99.90;;;;;;5048408;28;20461;-74
2021/10/28 05:23:46;;;;;;;14.67;8.87;;;12.50;99.90;;;;;;5048028;28;20469;-74
2021/10/28 05:26:17;;;;;;;14.70;8.67;;;12.40;99.90;;;;;;5040227;28;20465;-73
2021/10/28 05:28:48;;;;;;;15.23;8.23;;;12.40;99.90;;;;;;5044608;28;20824;-72
2021/10/28 05:31:21;;;;;;;12.23;8.23;;;12.40;99.90;;;;;;5048013;28;20563;-72
2021/10/28 05:33:52;;;;;;;16.80;8.67;;;12.50;99.90;;;;;;5038446;28;20472;-72
2021/10/28 05:36:23;;;;;;;13.73;7.60;;;12.40;99.90;;;;;;5041896;28;20818;-72
2021/10/28 05:38:54;;;;;;;16.60;7.30;;;12.40;99.90;;;;;;5046828;28;20476;-72
2021/10/28 05:41:25;;;;;;;10.67;5.60;;;12.40;99.90;;;;;;5045220;28;20665;-72
2021/10/28 05:43:56;;;;;;;12.13;5.87;;;12.40;99.90;;;;;;5039263;28;20479;-71
2021/10/28 05:46:28;;;;;;;11.60;5.60;;;12.40;99.90;;;;;;5046637;28;20482;-70
2021/10/28 05:48:59;;;;;;;12.33;6.87;;;12.40;99.90;;;;;;5045847;28;21052;-72
2021/10/28 05:51:30;;;;;;;9.60;6.07;;;12.40;99.90;;;;;;5048287;28;20471;-71
2021/10/28 05:54:01;;;;;;;9.27;6.00;;;12.50;99.90;;;;;;5007133;28;20466;-72
2021/10/28 05:56:32;;;;;;;12.00;6.03;;;12.50;99.90;;;;;;5000721;28;20455;-71
2021/10/28 05:59:03;;;;;;;9.40;5.40;;;12.50;99.90;;;;;;5007167;28;20830;-74
2021/10/28 06:01:35;;;;;;;7.90;5.77;;;12.40;99.90;;;;;;5000608;28;20830;-71
2021/10/28 06:04:07;;;;;;;11.93;5.80;;;12.40;99.90;;;;;;5007286;28;20490;-72
2021/10/28 06:06:38;;;;;;;8.90;5.13;;;12.40;99.90;;;;;;5000440;28;20535;-72
2021/10/28 06:09:09;;;;;;;9.93;6.30;;;12.40;99.90;;;;;;5006306;28;20524;-73
2021/10/28 06:11:40;;;;;;;8.60;5.30;;;12.40;99.90;;;;;;5005514;28;20470;-73
2021/10/28 06:14:11;;;;;;;11.20;6.80;;;12.40;99.90;;;;;;5008764;28;20554;-72
2021/10/28 06:16:43;;;;;;;9.80;4.97;;;12.40;99.90;;;;;;5006667;28;20470;-73
2021/10/28 06:19:14;;;;;;;14.87;5.90;;;12.40;99.90;;;;;;5007503;28;20984;-73
2021/10/28 06:21:45;;;;;;;11.33;5.40;;;12.40;99.90;;;;;;4997883;28;20482;-73
2021/10/28 06:24:16;;;;;;;10.40;4.97;;;12.30;99.90;;;;;;5006368;28;20466;-73
2021/10/28 06:26:47;;;;;;;14.00;5.17;;;12.30;99.90;;;;;;5002866;28;20529;-73
2021/10/28 06:29:17;;;;;;;13.60;5.10;;;12.50;99.90;;;;;;5000223;28;20844;-73
2021/10/28 06:31:50;;;;;;;8.20;5.37;;;12.50;99.90;;;;;;5006499;28;20466;-73
2021/10/28 06:34:22;;;;;;;11.20;5.40;;;12.50;99.90;;;;;;5000465;28;20839;-73
2021/10/28 06:36:55;;;;;;;11.87;5.30;;;12.50;99.90;;;;;;5004370;28;20549;-73
2021/10/28 06:39:25;;;;;;;11.40;5.93;;;12.40;99.90;;;;;;5007153;28;20478;-73
2021/10/28 06:41:57;;;;;;;9.57;5.30;;;12.40;99.90;;;;;;5003190;28;20474;-74
2021/10/28 06:44:28;;;;;;;10.63;5.40;;;12.40;99.90;;;;;;5007329;28;20844;-73
2021/10/28 06:47:01;;;;;;;7.03;5.07;;;12.40;99.90;;;;;;5005294;28;20489;-74
2021/10/28 06:49:47;;;;;;;12.40;5.20;;;12.40;99.90;;;;;;4996370;28;20952;-78
2021/10/28 07:02:57;;;;;;;10.73;5.10;;;12.50;99.90;;;;;;5042200;28;20586;-75
2021/10/28 07:05:29;;;;;;;11.90;5.90;;;12.40;99.90;;;;;;5047713;28;20509;-75
2021/10/28 07:08:00;;;;;;;8.00;5.23;;;12.40;99.90;;;;;;5047886;28;20517;-73
2021/10/28 07:10:33;;;;;;;6.53;5.03;;;12.40;99.90;;;;;;5049897;28;20460;-73
2021/10/28 07:13:07;;;;;;;12.17;5.37;;;12.30;99.90;;;;;;5047643;28;20837;-75
2021/10/28 07:15:41;;;;;;;10.53;5.33;;;12.30;99.90;;;;;;5050578;28;20480;-73
2021/10/28 07:18:21;;;;;;;8.80;4.90;;;12.40;99.90;;;;;;5049070;28;20457;-75
2021/10/28 07:21:07;;;;;;;7.77;5.03;;;12.50;99.90;;;;;;5051645;28;20898;-74
2021/10/28 07:26:47;;;;;;;8.00;5.10;;;12.40;99.90;;;;;;5046442;28;20883;-74
2021/10/28 07:32:30;;;;;;;9.10;5.87;;;12.50;99.90;;;;;;5050918;28;20468;-74
2021/10/28 07:35:16;;;;;;;8.50;5.87;;;12.50;99.90;;;;;;5050122;28;20471;-74
2021/10/28 07:55:42;;;;;;;10.00;5.67;;;12.50;99.90;;;;;;5040606;28;20536;-74
2021/10/28 08:15:14;;;;;;;9.03;5.10;;;12.50;99.90;;;;;;5045602;28;20560;-73
2021/10/28 08:20:58;;;;;;;10.73;5.10;;;12.60;99.90;;;;;;5047670;28;20484;-74
2021/10/28 08:23:36;;;;;;;9.50;5.07;;;12.50;99.90;;;;;;5048114;28;20468;-73
2021/10/28 08:29:20;;;;;;;9.80;4.80;;;12.50;99.90;;;;;;5040147;28;20463;-76
2021/10/28 08:32:00;;;;;;;9.00;4.80;;;12.50;99.90;;;;;;5049806;28;20535;-75
2021/10/28 08:34:50;;;;;;;6.43;4.67;;;12.50;99.90;;;;;;5046798;28;20453;-75
2021/10/28 08:37:30;;;;;;;11.50;5.93;;;12.60;99.90;;;;;;5047637;28;20551;-75
2021/10/28 08:40:02;;;;;;;9.30;4.50;;;12.60;99.90;;;;;;5047554;28;20512;-74
2021/10/28 08:42:37;;;;;;;7.73;4.20;;;12.70;99.90;;;;;;5046557;28;20468;-75
2021/10/28 08:45:11;;;;;;;6.60;4.60;;;12.70;99.90;;;;;;5048720;28;20579;-75
2021/10/28 08:47:47;;;;;;;7.27;4.20;;;12.70;99.90;;;;;;5048443;28;21282;-74
2021/10/28 08:50:26;;;;;;;6.13;4.30;;;12.60;99.90;;;;;;5044002;28;20580;-75
2021/10/28 08:55:56;;;;;;;8.20;4.70;;;12.70;99.90;;;;;;5038020;28;20634;-74
2021/10/28 08:58:43;;;;;;;10.73;4.80;;;12.70;99.90;;;;;;5045906;28;20528;-74
2021/10/28 09:24:16;;;;;;;12.33;4.73;;;12.60;99.90;;;;;;5046259;28;20556;-73
2021/10/28 09:26:57;;;;;;;7.53;5.03;;;12.70;99.90;;;;;;5043644;28;20474;-73
2021/10/28 09:29:38;;;;;;;5.47;4.50;;;12.70;99.90;;;;;;5044057;28;20464;-73
2021/10/28 09:32:28;;;;;;;5.30;3.77;;;12.60;99.90;;;;;;5047909;28;20480;-73
2021/10/28 09:44:10;;;;;;;7.43;4.90;;;12.70;99.90;;;;;;5000566;28;20944;-73
2021/10/28 09:46:45;;;;;;;8.33;4.53;;;12.80;99.90;;;;;;5030314;28;20467;-73
2021/10/28 09:52:07;;;;;;;9.30;4.90;;;12.80;99.90;;;;;;5034973;28;20465;-73
2021/10/28 09:54:46;;;;;;;7.00;4.37;;;12.80;99.90;;;;;;5046889;28;20479;-73
2021/10/28 09:57:56;;;;;;;12.77;5.20;;;12.80;99.90;;;;;;5043104;28;20480;-73
2021/10/28 10:00:38;;;;;;;9.73;5.10;;;12.80;99.90;;;;;;5044213;28;20491;-73
2021/10/28 10:03:13;;;;;;;8.40;4.80;;;12.90;99.90;;;;;;5044542;28;20472;-73
2021/10/28 10:05:47;;;;;;;7.47;4.63;;;13.00;99.90;;;;;;5047082;28;20464;-73
2021/10/28 10:08:18;;;;;;;11.93;5.20;;;13.00;99.90;;;;;;5036943;28;20468;-73
2021/10/28 10:10:49;;;;;;;7.87;5.00;;;13.00;99.90;;;;;;5049290;28;20492;-73
2021/10/28 10:13:24;;;;;;;7.60;4.70;;;13.00;99.90;;;;;;5044821;28;20472;-74
2021/10/28 10:15:56;;;;;;;10.67;5.10;;;13.10;99.90;;;;;;5047701;28;20470;-75
2021/10/28 10:18:29;;;;;;;8.90;4.60;;;13.10;99.90;;;;;;5041466;28;20953;-74
2021/10/28 10:21:27;;;;;;;9.27;5.43;;;13.10;99.90;;;;;;5045462;28;20486;-75
2021/10/28 10:24:18;;;;;;;8.27;5.60;;;13.10;99.90;;;;;;5042211;28;20472;-75
2021/10/28 10:30:20;;;;;;;9.70;5.47;;;13.20;99.90;;;;;;5047031;28;20468;-71
2021/10/28 12:24:12;;;;;;;3.83;3.40;;;15.10;99.90;;;;;;4998789;28;20501;-74
2021/10/28 12:44:11;;;;;;;4.17;3.43;;;15.40;99.90;;;;;;5019978;28;20527;-74
2021/10/28 12:57:04;;;;;;;3.27;3.07;;;15.50;99.90;;;;;;5020750;28;20478;-75
2021/10/28 13:50:45;;;;;;;4.13;3.07;;;15.90;99.90;;;;;;5027148;28;20949;-74
2021/10/28 15:39:28;;;;;;;2.00;1.80;;;16.50;99.90;;;;;;4981924;28;20475;-73
2021/10/28 16:23:41;;;;;;;1.87;1.77;;;17.10;99.90;;;;;;5074451;28;20461;-69
2021/10/28 16:26:11;;;;;;;1.60;1.50;;;17.10;99.90;;;;;;5063080;28;20459;-68
2021/10/28 16:28:42;;;;;;;2.03;1.50;;;17.10;99.90;;;;;;5069853;28;20535;-68
2021/10/28 16:31:16;;;;;;;1.63;1.43;;;17.10;99.90;;;;;;5064596;28;20516;-69
2021/10/28 16:33:49;;;;;;;1.70;1.60;;;17.20;99.90;;;;;;5076219;28;20861;-69
2021/10/28 16:36:24;;;;;;;1.60;1.50;;;17.30;99.90;;;;;;5072122;28;20550;-69
2021/10/28 16:38:55;;;;;;;1.10;1.00;;;17.30;99.90;;;;;;5066307;28;20476;-68
2021/10/28 16:41:26;;;;;;;1.50;1.40;;;17.40;99.90;;;;;;5072699;28;20818;-68
2021/10/28 16:43:57;;;;;;;1.53;1.43;;;17.40;99.90;;;;;;5080031;28;20462;-69
2021/10/28 16:46:28;;;;;;;1.70;1.60;;;17.40;99.90;;;;;;5078604;28;20473;-69
2021/10/28 16:48:59;;;;;;;1.80;1.70;;;17.40;99.90;;;;;;5070152;28;20474;-69
2021/10/28 16:51:32;;;;;;;1.60;1.50;;;17.50;99.90;;;;;;5084838;28;20794;-69
2021/10/28 16:54:02;;;;;;;2.10;1.90;;;17.40;99.90;;;;;;5064272;28;20477;-69
2021/10/28 16:56:33;;;;;;;1.43;1.33;;;17.40;99.90;;;;;;5082097;28;20429;-69
2021/10/28 16:59:05;;;;;;;1.57;1.47;;;17.40;99.90;;;;;;5072987;28;21002;-69
2021/10/28 17:01:35;;;;;;;1.80;1.70;;;17.50;99.90;;;;;;5085124;28;20454;-69
2021/10/28 17:04:06;;;;;;;1.40;1.30;;;17.60;99.90;;;;;;5082275;28;20515;-69
2021/10/28 17:06:39;;;;;;;1.50;1.40;;;17.60;99.90;;;;;;5085182;28;20458;-69
2021/10/28 17:09:10;;;;;;;1.60;1.50;;;17.60;99.90;;;;;;5073056;28;20463;-69
2021/10/28 17:11:41;;;;;;;1.67;1.37;;;17.60;99.90;;;;;;5062295;28;20467;-69
2021/10/28 17:14:12;;;;;;;2.20;1.40;;;17.70;99.90;;;;;;5066643;28;20451;-69
2021/10/28 17:16:46;;;;;;;1.77;1.30;;;17.70;99.90;;;;;;5053584;28;20802;-69
2021/10/28 17:19:19;;;;;;;1.70;1.60;;;17.70;99.90;;;;;;5055567;28;20474;-69
2021/10/28 17:21:51;;;;;;;1.50;1.30;;;17.70;99.90;;;;;;5062818;28;20467;-69
2021/10/28 17:24:27;;;;;;;1.30;1.30;;;17.70;99.90;;;;;;5062860;28;20471;-69
2021/10/28 17:26:58;;;;;;;2.83;1.50;;;17.80;99.90;;;;;;5061227;28;20470;-69
2021/10/28 17:29:30;;;;;;;1.83;1.70;;;17.80;99.90;;;;;;5063183;28;20470;-69
2021/10/28 17:32:01;;;;;;;1.60;1.50;;;17.80;99.90;;;;;;5064813;28;20859;-69
2021/10/28 17:34:33;;;;;;;1.73;1.63;;;17.80;99.90;;;;;;5063562;28;20463;-70
2021/10/28 17:37:07;;;;;;;1.60;1.50;;;17.80;99.90;;;;;;5064332;28;20526;-69
2021/10/28 17:39:37;;;;;;;1.57;1.47;;;17.70;99.90;;;;;;5056327;28;20478;-69
2021/10/28 17:42:08;;;;;;;1.13;1.10;;;17.80;99.90;;;;;;5064864;28;20459;-69
2021/10/28 17:44:42;;;;;;;1.60;1.43;;;17.80;99.90;;;;;;5069005;28;20463;-67
2021/10/28 17:47:12;;;;;;;1.87;1.53;;;17.90;99.90;;;;;;5053386;28;20537;-66
2021/10/28 17:49:44;;;;;;;1.27;1.20;;;18.00;99.90;;;;;;5058691;28;20451;-66
2021/10/28 17:52:38;;;;;;;2.27;1.70;;;18.10;99.90;;;;;;5047418;28;20448;-69
2021/10/28 17:55:10;;;;;;;1.40;1.30;;;18.30;99.90;;;;;;5054238;28;20506;-68
2021/10/28 17:57:44;;;;;;;1.33;1.30;;;18.40;99.90;;;;;;5050875;28;20483;-69
2021/10/28 18:00:16;;;;;;;1.33;1.23;;;18.50;99.90;;;;;;5053652;28;21059;-69
2021/10/28 18:02:47;;;;;;;1.77;1.50;;;18.70;99.90;;;;;;5055502;28;20511;-69
2021/10/28 18:05:39;;;;;;;2.30;1.57;;;18.70;99.90;;;;;;5059248;28;20463;-70
2021/10/28 18:08:11;;;;;;;1.43;1.33;;;18.80;99.90;;;;;;5066159;28;20839;-68
2021/10/28 18:10:42;;;;;;;1.50;1.40;;;19.00;99.90;;;;;;5057876;28;20504;-67
2021/10/28 18:13:13;;;;;;;1.60;1.43;;;19.10;99.90;;;;;;5068851;28;20459;-67
2021/10/28 18:15:45;;;;;;;1.60;1.50;;;19.20;99.90;;;;;;5059279;28;20454;-66
2021/10/28 18:18:16;;;;;;;1.63;1.53;;;19.30;99.90;;;;;;5061449;28;20517;-67
2021/10/28 18:21:00;;;;;;;2.07;1.90;;;19.40;99.90;;;;;;5046054;28;20477;-67
2021/10/28 18:23:38;;;;;;;2.23;1.67;;;19.40;99.90;;;;;;5055927;28;20463;-67
2021/10/28 18:26:09;;;;;;;1.83;1.50;;;19.60;99.90;;;;;;5058012;28;20454;-66
2021/10/28 18:28:39;;;;;;;2.40;1.50;;;19.70;99.90;;;;;;5056879;28;20468;-67
2021/10/28 18:31:10;;;;;;;1.70;1.60;;;19.80;99.90;;;;;;5068200;28;20464;-69
2021/10/28 18:33:43;;;;;;;1.63;1.53;;;20.00;99.90;;;;;;5035314;28;20443;-67
2021/10/28 18:36:14;;;;;;;2.07;1.90;;;19.90;99.90;;;;;;5048440;28;20547;-68
2021/10/28 18:38:49;;;;;;;1.53;1.40;;;19.60;99.90;;;;;;5061310;28;20455;-67
2021/10/28 18:41:20;;;;;;;1.63;1.53;;;19.40;99.90;;;;;;5049442;28;20442;-68
2021/10/28 18:43:51;;;;;;;1.80;1.70;;;19.30;99.90;;;;;;5061932;28;20489;-67
2021/10/28 18:46:22;;;;;;;1.90;1.77;;;19.30;99.90;;;;;;5049921;28;20573;-68
2021/10/28 18:48:54;;;;;;;1.83;1.73;;;19.20;99.90;;;;;;5055813;28;20498;-67
2021/10/28 18:51:26;;;;;;;2.13;1.93;;;19.30;99.90;;;;;;5062205;28;20463;-67
2021/10/28 18:53:58;;;;;;;2.60;1.93;;;19.50;99.90;;;;;;5062716;28;20804;-68
2021/10/28 18:56:29;;;;;;;4.73;2.00;;;19.70;99.90;;;;;;5066571;28;20458;-68
2021/10/28 18:59:01;;;;;;;1.97;1.87;;;19.90;99.90;;;;;;5051901;28;20928;-67
2021/10/28 19:01:32;;;;;;;1.90;1.73;;;20.00;99.90;;;;;;5069903;28;20538;-67
2021/10/28 19:04:03;;;;;;;2.67;2.47;;;20.20;99.90;;;;;;5063867;28;20822;-68
2021/10/28 19:06:33;;;;;;;2.87;2.40;;;20.30;99.90;;;;;;5054434;28;20467;-68
2021/10/28 19:09:08;;;;;;;2.10;2.00;;;20.40;99.90;;;;;;5061068;28;20490;-68
2021/10/28 19:11:39;;;;;;;2.23;2.10;;;20.40;99.90;;;;;;5059053;28;20949;-68
2021/10/28 19:14:10;;;;;;;2.23;2.07;;;20.50;99.90;;;;;;5064461;28;20481;-68
2021/10/28 19:16:41;;;;;;;2.23;1.90;;;20.50;99.90;;;;;;5052393;28;20964;-68
2021/10/28 19:19:11;;;;;;;3.47;2.20;;;20.50;99.90;;;;;;5059023;28;20474;-68
2021/10/28 19:21:43;;;;;;;2.23;1.60;;;20.50;99.90;;;;;;5065509;28;20462;-70
2021/10/28 19:24:16;;;;;;;1.70;1.60;;;20.50;99.90;;;;;;5041571;28;20549;-67
2021/10/28 19:26:47;;;;;;;1.63;1.53;;;20.40;99.90;;;;;;5059752;28;20455;-71
2021/10/28 19:29:20;;;;;;;1.93;1.53;;;20.30;99.90;;;;;;5064717;28;20459;-67
2021/10/28 19:31:54;;;;;;;1.77;1.60;;;20.30;99.90;;;;;;5049339;28;20427;-67
2021/10/28 19:34:27;;;;;;;1.80;1.60;;;20.30;99.90;;;;;;5055167;28;20448;-69
2021/10/28 19:37:01;;;;;;;1.50;1.40;;;20.20;99.90;;;;;;5066917;28;20461;-68
2021/10/28 19:39:51;;;;;;;3.23;1.20;;;20.10;99.90;;;;;;5057088;28;20433;-67
2021/10/28 19:45:04;;;;;;;1.50;1.40;;;20.10;99.90;;;;;;5049002;28;20460;-68
2021/10/28 19:46:08;;;;;;;1.83;1.73;;;20.20;99.90;;;;;;5052463;28;20471;-70
2021/10/28 19:48:22;;;;;;;1.57;1.43;;;20.30;99.90;;;;;;5044571;28;20529;-70
2021/10/28 19:50:53;;;;;;;1.60;1.50;;;20.20;99.90;;;;;;5054904;28;20440;-68
2021/10/28 19:53:24;;;;;;;2.20;2.00;;;20.30;99.90;;;;;;5053024;28;20453;-68
2021/10/28 19:56:08;;;;;;;1.50;1.40;;;20.40;99.90;;;;;;5063457;28;20459;-65
2021/10/28 19:58:45;;;;;;;1.50;1.40;;;20.60;99.90;;;;;;5057041;28;20440;-67
2021/10/28 20:01:25;;;;;;;1.70;1.60;;;20.60;99.90;;;;;;5065083;28;20465;-65
2021/10/28 20:04:11;;;;;;;2.70;1.73;;;20.50;99.90;;;;;;5058744;28;20822;-64
2021/10/28 20:15:26;;;;;;;2.80;1.90;;;20.40;99.90;;;;;;5058531;28;20447;-68
2021/10/28 20:20:45;;;;;;;2.50;2.30;;;20.30;99.90;;;;;;5045896;28;20506;-72
2021/10/28 20:23:16;;;;;;;4.30;2.40;;;20.40;99.90;;;;;;5067094;28;20440;-72
2021/10/28 20:25:47;;;;;;;2.40;2.23;;;20.40;99.90;;;;;;5050598;28;20452;-69
2021/10/28 20:28:20;;;;;;;2.50;2.30;;;20.50;99.90;;;;;;5056138;28;20462;-72
2021/10/28 20:30:55;;;;;;;2.50;2.30;;;20.60;99.90;;;;;;5050909;28;22384;-71
2021/10/28 20:33:28;;;;;;;2.40;2.20;;;20.60;99.90;;;;;;5045262;28;20525;-72
2021/10/28 20:38:53;;;;;;;2.53;2.43;;;20.50;99.90;;;;;;4979859;28;20529;-73
2021/10/28 20:41:25;;;;;;;2.60;2.40;;;20.60;99.90;;;;;;5036591;28;20525;-73
2021/10/28 20:43:58;;;;;;;2.40;2.20;;;20.70;99.90;;;;;;5051810;28;20485;-73
2021/10/28 20:46:29;;;;;;;2.97;2.60;;;20.70;99.90;;;;;;5039564;28;20503;-72
2021/10/28 20:49:00;;;;;;;2.77;2.33;;;20.60;99.90;;;;;;5040232;28;20460;-72
2021/10/28 20:51:31;;;;;;;2.70;2.20;;;20.80;99.90;;;;;;5049470;28;20460;-72
2021/10/28 20:54:03;;;;;;;2.67;2.30;;;20.90;99.90;;;;;;5038578;28;20807;-71
2021/10/28 20:56:34;;;;;;;3.43;3.13;;;21.00;99.90;;;;;;5053749;28;20434;-72
2021/10/28 20:59:07;;;;;;;3.50;3.20;;;21.10;99.90;;;;;;5037679;28;20472;-70
2021/10/28 21:01:37;;;;;;;4.27;3.40;;;21.10;99.90;;;;;;5032198;28;20903;-71
2021/10/28 21:04:08;;;;;;;4.40;4.00;;;21.10;99.90;;;;;;5045522;28;20506;-72
2021/10/28 21:06:39;;;;;;;3.03;2.83;;;21.10;99.90;;;;;;5049904;28;20448;-74
2021/10/28 21:09:11;;;;;;;4.40;3.20;;;21.00;99.90;;;;;;5043097;28;20460;-72
2021/10/28 21:11:45;;;;;;;3.37;3.07;;;21.10;99.90;;;;;;5035326;28;20464;-72
2021/10/28 21:14:18;;;;;;;2.93;2.73;;;21.20;99.90;;;;;;5047751;28;20885;-72
2021/10/28 21:16:49;;;;;;;2.87;2.67;;;21.00;99.90;;;;;;5054777;28;20447;-73
2021/10/28 21:19:20;;;;;;;2.70;2.50;;;20.80;99.90;;;;;;5046968;28;20451;-73
2021/10/28 21:21:51;;;;;;;3.73;3.30;;;20.80;99.90;;;;;;5043815;28;20569;-76
2021/10/28 21:24:22;;;;;;;3.43;3.10;;;20.80;99.90;;;;;;5048701;28;20469;-72
2021/10/28 21:26:58;;;;;;;2.67;2.57;;;20.80;99.90;;;;;;5051522;28;20497;-73
2021/10/28 21:29:32;;;;;;;3.30;3.00;;;20.90;99.90;;;;;;5034157;28;20465;-74
2021/10/28 21:32:03;;;;;;;3.00;2.80;;;20.90;99.90;;;;;;5047214;28;20434;-72
2021/10/28 21:34:34;;;;;;;3.53;2.80;;;20.90;99.90;;;;;;5059059;28;20912;-73
2021/10/28 21:37:10;;;;;;;2.83;2.63;;;21.00;99.90;;;;;;5063278;28;20629;-71
2021/10/28 21:39:43;;;;;;;2.97;2.70;;;21.10;99.90;;;;;;5042791;28;20456;-73
2021/10/28 21:42:14;;;;;;;3.27;3.00;;;21.10;99.90;;;;;;5041138;28;20934;-74
2021/10/28 21:44:46;;;;;;;2.80;2.60;;;21.10;99.90;;;;;;5057192;28;20981;-72
2021/10/28 21:47:18;;;;;;;3.10;2.90;;;21.10;99.90;;;;;;5068427;28;20510;-73